Latest Weather Observations for PORTABLE QFRL (Mt Fox)

IDQ60801

Issued at 9:52 pm EST Friday 16 November 2018 (issued every 10 minutes, with the page automatically refreshed every 10 minutes)

About weather observations | Map of weather stations | Latest weather observations for QLD | Other Formats
Station Details ID: 250076 Name: PORTABLE QFRL (MOUNT FOX) Lat: -18.83 Lon: 145.80 Height: 645.0 m
Data from the previous 72 hours. | See also: Recent months for locations in Queensland
Date/Time
EST
Temp
°C
App
Temp
°C
Dew
Point
°C
Rel
Hum
%
Delta-T
°C
Wind Press
QNH
hPa
Press
MSL
hPa
Rain since
9am
mm
Dir  Spd
km/h
Gust
km/h
Spd
kts
Gust
kts
16/09:30pm 19.9 21.4 18.0 89 1.2 NE 7 11 4 6 - - 0.0
16/09:20pm 20.0 21.4 17.7 86 1.5 NE 7 11 4 6 - - 0.0
16/09:10pm 20.1 21.3 17.3 84 1.8 NE 7 11 4 6 - - 0.0
16/09:00pm 20.4 21.4 16.8 80 2.2 NE 7 11 4 6 - - 0.0
16/08:50pm 20.7 21.3 16.7 78 2.5 NE 9 13 5 7 - - 0.0
16/08:40pm 21.0 21.9 16.2 74 3.0 NE 6 11 3 6 - - 0.0
16/08:30pm 21.2 21.7 15.6 70 3.4 ENE 7 13 4 7 - - 0.0
16/08:20pm 21.2 21.7 15.1 68 3.7 ENE 6 9 3 5 - - 0.0
16/08:10pm 21.3 21.7 14.8 66 3.9 NE 6 9 3 5 - - 0.0
16/08:00pm 21.5 21.7 14.2 63 4.4 ENE 6 9 3 5 - - 0.0
16/07:50pm 21.6 21.5 13.3 59 4.9 ENE 6 7 3 4 - - 0.0
16/07:40pm 21.7 21.4 12.6 56 5.3 NE 6 7 3 4 - - 0.0
16/07:30pm 21.9 21.5 12.5 55 5.5 ENE 6 9 3 5 - - 0.0
16/07:20pm 22.2 21.7 12.5 54 5.7 NE 7 11 4 6 - - 0.0
16/07:10pm 22.4 22.0 12.3 52 5.9 ENE 6 7 3 4 - - 0.0
16/07:00pm 22.6 22.0 11.7 50 6.3 NE 6 7 3 4 - - 0.0
16/06:50pm 23.0 22.2 11.1 47 6.8 NE 6 11 3 6 - - 0.0
16/06:40pm 23.4 21.8 8.6 38 8.1 NE 7 9 4 5 - - 0.0
16/06:30pm 23.9 22.0 7.5 35 8.9 NNE 7 9 4 5 - - 0.0
16/06:20pm 24.3 21.7 6.0 30 9.7 NE 9 13 5 7 - - 0.0
16/06:10pm 24.6 22.1 6.5 31 9.7 NNE 9 11 5 6 - - 0.0
16/06:00pm 24.8 22.5 7.5 33 9.4 NE 9 13 5 7 - - 0.0
16/05:50pm 25.1 23.8 9.8 38 8.7 NE 7 11 4 6 - - 0.0
16/05:40pm 25.3 24.1 10.3 38 8.6 NE 7 13 4 7 - - 0.0
16/05:30pm 25.5 23.8 10.0 37 8.8 NE 9 11 5 6 - - 0.0
16/05:20pm 26.0 25.0 10.9 38 8.7 NE 7 11 4 6 - - 0.0
16/05:10pm 26.2 23.8 10.0 36 9.3 ENE 13 19 7 10 - - 0.0
16/05:00pm 26.4 24.7 9.7 35 9.5 ENE 9 17 5 9 - - 0.0
16/04:50pm 26.9 25.3 10.3 35 9.6 ENE 9 11 5 6 - - 0.0
16/04:40pm 27.3 25.4 10.6 35 9.7 NE 11 17 6 9 - - 0.0
16/04:30pm 27.5 25.3 10.7 35 9.8 NE 13 17 7 9 - - 0.0
16/04:20pm 27.5 25.5 10.2 34 10.0 NE 11 17 6 9 - - 0.0
16/04:10pm 28.2 25.8 9.9 32 10.5 NE 13 17 7 9 - - 0.0
16/04:00pm 28.5 26.5 10.0 31 10.7 NE 11 13 6 7 - - 0.0
16/03:50pm 28.9 26.7 9.3 29 11.2 ENE 11 15 6 8 - - 0.0
16/03:40pm 29.1 26.7 8.7 28 11.6 NE 11 17 6 9 - - 0.0
16/03:30pm 29.2 26.9 9.0 28 11.5 NE 11 15 6 8 - - 0.0
16/03:20pm 29.5 27.8 9.7 29 11.4 NNE 9 17 5 9 - - 0.0
16/03:10pm 29.4 27.2 9.3 28 11.5 NE 11 17 6 9 - - 0.0
16/03:00pm 29.3 27.1 9.4 29 11.4 NE 11 15 6 8 - - 0.0
16/02:50pm 29.2 27.1 9.6 29 11.3 NE 11 17 6 9 - - 0.0
16/02:40pm 29.7 27.5 9.4 28 11.7 NNE 11 13 6 7 - - 0.0
16/02:30pm 29.5 27.7 9.6 29 11.5 NE 9 15 5 8 - - 0.0
16/02:20pm 29.6 27.5 9.8 29 11.5 NNE 11 15 6 8 - - 0.0
16/02:10pm 29.3 27.0 10.3 30 11.1 NE 13 15 7 8 - - 0.0
16/02:00pm 29.4 27.7 11.1 32 10.8 NE 11 19 6 10 - - 0.0
16/01:50pm 29.9 28.4 10.4 29 11.4 NE 9 13 5 7 - - 0.0
16/01:40pm 29.6 27.9 11.3 32 10.8 ENE 11 15 6 8 - - 0.0
16/01:30pm 29.7 28.8 11.5 32 10.8 ENE 7 13 4 7 - - 0.0
16/01:20pm 29.3 27.7 11.6 33 10.5 NNE 11 17 6 9 - - 0.0
16/01:10pm 29.7 28.1 11.7 33 10.7 ENE 11 15 6 8 - - 0.0
16/01:00pm 29.2 27.5 11.2 32 10.6 NE 11 17 6 9 - - 0.0
16/12:50pm 29.3 27.7 12.8 36 10.0 NE 13 19 7 10 - - 0.0
16/12:40pm 29.7 28.8 12.5 34 10.4 NE 9 13 5 7 - - 0.0
16/12:30pm 29.4 28.2 12.9 36 10.0 NE 11 13 6 7 - - 0.0
16/12:20pm 29.5 28.5 13.5 37 9.8 NE 11 15 6 8 - - 0.0
16/12:10pm 29.3 28.8 13.8 38 9.5 ENE 9 13 5 7 - - 0.0
16/12:00pm 28.7 28.5 14.8 42 8.7 ENE 9 15 5 8 - - 0.0
16/11:50am 28.7 27.9 14.1 40 9.0 ENE 11 17 6 9 - - 0.0
16/11:40am 28.4 28.3 14.9 43 8.4 ENE 9 17 5 9 - - 0.0
16/11:30am 28.2 27.4 15.0 44 8.2 ENE 13 19 7 10 - - 0.0
16/11:20am 28.4 28.2 14.8 43 8.5 ENE 9 13 5 7 - - 0.0
16/11:10am 28.0 28.2 15.7 47 7.7 NE 9 15 5 8 - - 0.0
16/11:00am 27.1 27.7 15.7 49 7.2 NE 7 11 4 6 - - 0.0
16/10:50am 27.2 28.3 17.0 53 6.5 ENE 7 9 4 5 - - 0.0
16/10:40am 27.3 27.7 16.3 51 7.0 ENE 9 15 5 8 - - 0.0
16/10:30am 26.8 27.9 17.0 55 6.3 NE 7 13 4 7 - - 0.0
16/10:20am 26.5 26.8 15.9 52 6.7 ENE 9 15 5 8 - - 0.0
16/10:00am 26.2 26.8 16.8 56 6.0 ENE 9 15 5 8 - - 0.0
16/09:50am 26.7 27.5 17.3 56 6.0 NE 9 11 5 6 - - 0.0
16/09:40am 25.8 26.6 17.3 59 5.4 NNE 9 15 5 8 - - 0.0
16/09:30am 25.7 26.7 17.7 61 5.2 NE 9 11 5 6 - - 0.0
16/09:20am 25.7 26.8 17.2 59 5.4 NE 7 11 4 6 - - 0.0
16/09:10am 25.2 26.3 17.2 61 5.1 NE 7 13 4 7 - - 0.0
16/09:00am 25.0 26.3 17.5 63 4.8 ENE 7 11 4 6 - - 0.0
16/08:50am 25.2 26.4 17.4 62 5.0 ENE 7 9 4 5 - - 0.0
16/08:40am 24.7 25.6 17.5 64 4.6 ENE 9 13 5 7 - - 0.0
16/08:30am 24.4 25.6 17.4 65 4.5 NE 7 13 4 7 - - 0.0
16/08:20am 24.1 25.6 17.6 67 4.2 NNE 6 11 3 6 - - 0.0
16/08:10am 23.5 24.8 17.5 69 3.8 NE 7 13 4 7 - - 0.0
16/08:00am 22.9 24.3 17.7 72 3.3 ENE 7 13 4 7 - - 0.0
16/07:50am 22.7 23.8 17.9 74 3.1 NE 9 13 5 7 - - 0.0
16/07:40am 22.7 24.1 17.8 74 3.1 ENE 7 13 4 7 - - 0.0
16/07:30am 22.1 23.5 17.9 77 2.7 ENE 7 9 4 5 - - 0.0
16/07:20am 21.6 23.3 18.1 80 2.2 NE 6 9 3 5 - - 0.0
16/07:10am 21.1 22.9 18.2 83 1.9 NE 6 7 3 4 - - 0.0
16/07:00am 20.8 23.0 18.4 86 1.5 NE 4 7 2 4 - - 0.0
16/06:50am 20.7 22.5 18.4 87 1.5 NE 6 11 3 6 - - 0.0
16/06:40am 20.5 22.4 18.5 88 1.3 NE 6 7 3 4 - - 0.0
16/06:30am 20.1 22.3 18.3 89 1.1 NE 4 7 2 4 - - 0.0
16/06:20am 19.9 21.5 18.2 90 1.1 NE 7 9 4 5 - - 0.0
16/06:10am 19.6 21.2 18.2 92 0.9 NE 7 9 4 5 - - 0.0
16/06:00am 19.4 21.2 18.2 93 0.8 NNE 6 7 3 4 - - 0.0
16/05:50am 19.4 21.0 18.2 93 0.8 NE 7 13 4 7 - - 0.0
16/05:40am 19.3 20.5 18.2 93 0.7 NE 9 11 5 6 - - 0.0
16/05:30am 19.4 20.6 18.2 93 0.8 NE 9 13 5 7 - - 0.0
16/05:20am 19.3 20.4 18.1 93 0.8 NE 9 11 5 6 - - 0.0
16/05:10am 19.4 20.6 18.2 93 0.8 NE 9 13 5 7 - - 0.0
16/05:00am 19.3 20.9 18.3 94 0.6 NE 7 9 4 5 - - 0.0
16/04:50am 19.3 20.5 18.2 93 0.7 NE 9 11 5 6 - - 0.0
16/04:40am 19.3 20.5 18.2 93 0.7 NE 9 13 5 7 - - 0.0
16/04:30am 19.3 20.9 18.2 93 0.7 NE 7 9 4 5 - - 0.0
16/04:20am 19.3 20.5 18.2 93 0.7 NE 9 11 5 6 - - 0.0
16/04:10am 19.3 20.5 18.3 94 0.6 NNE 9 11 5 6 - - 0.0
16/04:00am 19.3 20.1 18.1 93 0.8 NE 11 13 6 7 - - 0.0
16/03:50am 19.3 20.1 18.1 93 0.8 NE 11 15 6 8 - - 0.0
16/03:40am 19.3 20.9 18.3 94 0.6 NE 7 11 4 6 - - 0.0
16/03:30am 19.2 20.8 18.2 94 0.6 NE 7 11 4 6 - - 0.0
16/03:20am 19.2 20.8 18.2 94 0.6 NE 7 11 4 6 - - 0.0
16/03:10am 19.3 20.9 18.2 93 0.7 NNE 7 11 4 6 - - 0.0
16/03:00am 19.3 20.9 18.2 93 0.7 NE 7 11 4 6 - - 0.0
16/02:50am 19.3 20.4 18.1 93 0.8 NE 9 13 5 7 - - 0.0
16/02:40am 19.3 20.4 18.1 93 0.8 NE 9 13 5 7 - - 0.0
16/02:30am 19.3 20.4 18.1 93 0.8 NE 9 13 5 7 - - 0.0
16/02:20am 19.2 20.3 18.1 93 0.7 NE 9 13 5 7 - - 0.0
16/02:10am 19.2 20.3 17.9 92 0.8 NE 9 13 5 7 - - 0.0
16/02:00am 19.3 20.4 17.9 92 0.9 NE 9 15 5 8 - - 0.0
16/01:50am 19.2 20.3 17.9 92 0.8 NE 9 11 5 6 - - 0.0
16/01:40am 19.2 20.3 17.9 92 0.8 NE 9 13 5 7 - - 0.0
16/01:30am 19.1 20.5 17.8 92 0.8 NE 7 13 4 7 - - 0.0
16/01:20am 19.1 20.1 17.8 92 0.8 NE 9 11 5 6 - - 0.0
16/01:10am 19.0 20.4 17.7 92 0.8 NE 7 13 4 7 - - 0.0
16/01:00am 19.0 20.0 17.7 92 0.8 NE 9 13 5 7 - - 0.0
16/12:50am 19.0 20.5 17.7 92 0.8 NE 6 11 3 6 - - 0.0
16/12:40am 19.1 20.5 17.7 92 0.9 NE 7 11 4 6 - - 0.0
16/12:30am 19.1 20.5 17.7 92 0.9 NE 7 11 4 6 - - 0.0
16/12:20am 19.2 20.2 17.7 91 0.9 NNE 9 13 5 7 - - 0.0
16/12:10am 19.2 20.6 17.7 91 0.9 NE 7 13 4 7 - - 0.0
16/12:00am 19.3 20.7 17.7 90 1.0 NE 7 11 4 6 - - 0.0
 
Date/Time
EST
Temp
°C
App
Temp
°C
Dew
Point
°C
Rel
Hum
%
Delta-T
°C
Wind Press
QNH
hPa
Press
MSL
hPa
Rain since
9am
mm
Dir  Spd
km/h
Gust
km/h
Spd
kts
Gust
kts
15/11:50pm 19.4 20.4 17.7 90 1.1 NE 9 15 5 8 - - 0.0
15/11:40pm 19.4 20.4 17.7 90 1.1 NE 9 11 5 6 - - 0.0
15/11:30pm 19.4 20.4 17.7 90 1.1 NE 9 15 5 8 - - 0.0
15/11:20pm 19.4 20.4 17.7 90 1.1 NE 9 13 5 7 - - 0.0
15/11:10pm 19.4 20.8 17.7 90 1.1 NE 7 11 4 6 - - 0.0
15/11:00pm 19.5 20.9 17.7 89 1.1 NE 7 11 4 6 - - 0.0
15/10:50pm 19.5 20.9 17.7 89 1.1 NE 7 13 4 7 - - 0.0
15/10:40pm 19.5 20.9 17.8 90 1.1 NE 7 11 4 6 - - 0.0
15/10:30pm 19.6 20.6 17.8 89 1.1 NE 9 13 5 7 - - 0.0
15/10:20pm 19.6 21.0 17.9 90 1.1 NE 7 11 4 6 - - 0.0
15/10:10pm 19.6 20.7 18.0 90 1.0 NE 9 13 5 7 - - 0.0
15/10:00pm 19.7 20.8 18.1 90 1.0 NE 9 13 5 7 - - 0.0
15/09:50pm 19.7 20.8 18.0 90 1.1 NE 9 15 5 8 - - 0.0
15/09:40pm 19.7 21.2 18.0 90 1.1 NE 7 9 4 5 - - 0.0
15/09:30pm 19.7 21.1 17.9 89 1.1 NE 7 13 4 7 - - 0.0
15/09:20pm 19.8 21.2 17.9 89 1.2 NE 7 9 4 5 - - 0.0
15/09:10pm 19.9 21.3 17.9 88 1.3 NE 7 9 4 5 - - 0.0
15/09:00pm 20.1 21.5 17.9 87 1.4 NE 7 9 4 5 - - 0.0
15/08:50pm 20.2 21.7 18.0 87 1.4 NE 7 13 4 7 - - 0.0
15/08:40pm 20.3 22.0 18.0 87 1.5 NE 6 9 3 5 - - 0.0
15/08:30pm 20.4 22.1 18.1 87 1.5 NE 6 7 3 4 - - 0.0
15/08:20pm 20.5 21.6 18.0 85 1.6 ENE 9 13 5 7 - - 0.0
15/08:10pm 20.7 22.1 17.8 83 1.8 ENE 7 13 4 7 - - 0.0
15/08:00pm 20.8 22.1 17.6 82 2.0 NE 7 9 4 5 - - 0.0
15/07:50pm 21.0 22.1 17.1 78 2.4 ENE 7 11 4 6 - - 0.0
15/07:40pm 21.1 22.0 16.5 75 2.9 ENE 7 11 4 6 - - 0.0
15/07:30pm 21.2 22.1 16.6 75 2.9 ENE 7 11 4 6 - - 0.0
15/07:20pm 21.3 22.3 16.8 75 2.8 ENE 7 11 4 6 - - 0.0
15/07:10pm 21.5 22.5 16.8 74 2.9 ENE 7 13 4 7 - - 0.0
15/07:00pm 21.6 22.7 16.7 73 3.1 ENE 6 11 3 6 - - 0.0
15/06:50pm 21.9 22.8 16.5 71 3.4 ENE 7 15 4 8 - - 0.0
15/06:40pm 22.1 23.1 16.4 70 3.6 NE 6 7 3 4 - - 0.0
15/06:30pm 22.4 23.3 16.2 68 3.9 NE 6 9 3 5 - - 0.0
15/06:20pm 22.7 23.1 16.3 67 4.0 NE 9 13 5 7 - - 0.0
15/06:10pm 23.0 23.7 16.2 65 4.2 NE 7 13 4 7 - - 0.0
15/06:00pm 23.4 24.3 16.5 65 4.3 NNE 7 9 4 5 - - 0.0
15/05:50pm 23.7 24.6 16.7 65 4.4 NE 7 11 4 6 - - 0.0
15/05:40pm 23.9 24.5 16.7 64 4.5 NE 9 13 5 7 - - 0.0
15/05:30pm 24.2 24.3 16.6 62 4.8 NE 11 17 6 9 - - 0.0
15/05:20pm 24.5 24.7 16.7 61 4.9 NE 11 17 6 9 - - 0.0
15/05:10pm 24.7 24.4 16.5 60 5.2 NE 13 19 7 10 - - 0.0
15/05:00pm 25.3 25.3 16.2 57 5.7 NE 11 17 6 9 - - 0.0
15/04:50pm 25.4 25.4 16.3 57 5.7 NE 11 15 6 8 - - 0.0
15/04:40pm 25.8 25.9 16.4 56 5.9 NE 11 15 6 8 - - 0.0
15/04:30pm 26.0 26.0 16.3 55 6.1 NNE 11 17 6 9 - - 0.0
15/04:20pm 26.2 25.8 16.2 54 6.3 NE 13 17 7 9 - - 0.0
15/04:10pm 26.9 26.8 16.1 51 6.8 NE 11 17 6 9 - - 0.0
15/04:00pm 26.9 26.4 16.0 51 6.9 NE 13 17 7 9 - - 0.0
15/03:50pm 27.6 27.4 15.7 48 7.5 NE 11 15 6 8 - - 0.0
15/03:40pm 27.8 27.2 15.6 47 7.7 NNE 13 20 7 11 - - 0.0
15/03:30pm 28.3 28.4 15.5 45 8.0 NE 9 15 5 8 - - 0.0
15/03:20pm 28.3 27.5 15.1 44 8.2 NE 13 17 7 9 - - 0.0
15/03:10pm 28.9 28.9 15.3 43 8.5 NE 9 13 5 7 - - 0.0
15/03:00pm 29.0 29.2 14.6 41 9.0 NE 7 13 4 7 - - 0.0
15/02:50pm 28.5 28.0 14.8 43 8.5 NE 11 13 6 7 - - 0.0
15/02:40pm 28.1 26.7 14.5 43 8.4 NNE 15 26 8 14 - - 0.0
15/02:30pm 28.7 28.1 14.5 42 8.8 NE 11 17 6 9 - - 0.0
15/02:20pm 28.9 28.8 15.0 42 8.7 NE 9 13 5 7 - - 0.0
15/02:10pm 28.8 28.5 14.5 41 8.9 ENE 9 13 5 7 - - 0.0
15/02:00pm 28.9 28.6 14.3 40 9.0 ENE 9 13 5 7 - - 0.0
15/01:50pm 28.4 28.3 14.9 43 8.4 ENE 9 17 5 9 - - 0.0
15/01:40pm 28.6 28.0 14.6 42 8.7 ENE 11 17 6 9 - - 0.0
15/01:30pm 28.5 28.0 14.9 43 8.5 NE 11 13 6 7 - - 0.0
15/01:20pm 29.0 28.8 14.6 41 9.0 NE 9 15 5 8 - - 0.0
15/01:10pm 28.7 28.2 15.0 43 8.6 NE 11 15 6 8 - - 0.0
15/01:00pm 28.5 27.9 14.6 42 8.6 NE 11 19 6 10 - - 0.0
15/12:50pm 28.6 28.0 14.5 42 8.7 ENE 11 17 6 9 - - 0.0
15/12:40pm 28.3 27.8 14.8 43 8.4 NE 11 15 6 8 - - 0.0
15/12:30pm 28.4 27.8 14.6 43 8.6 NE 11 17 6 9 - - 0.0
15/12:20pm 28.3 28.1 14.6 43 8.5 NE 9 13 5 7 - - 0.0
15/12:10pm 28.4 27.7 14.2 41 8.8 E 11 15 6 8 - - 0.0
15/12:00pm 28.6 28.7 14.4 41 8.8 ENE 7 11 4 6 - - 0.0
15/11:50am 27.9 26.9 13.5 41 8.8 NE 11 17 6 9 - - 0.0
15/11:40am 28.4 28.5 15.6 45 8.1 NE 9 13 5 7 - - 0.0
15/11:30am 27.7 27.3 15.1 46 7.9 E 11 13 6 7 - - 0.0
15/11:20am 27.5 27.9 15.4 47 7.6 ENE 7 15 4 8 - - 0.0
15/11:10am 27.3 27.1 14.8 46 7.7 NE 9 13 5 7 - - 0.0
15/11:00am 27.0 27.4 16.4 52 6.7 ENE 9 15 5 8 - - 0.0
15/10:50am 26.9 26.6 15.5 49 7.1 ENE 11 15 6 8 - - 0.0
15/10:40am 26.2 26.5 15.9 53 6.5 ENE 9 15 5 8 - - 0.0
15/10:30am 26.2 25.6 15.6 52 6.6 NE 13 17 7 9 - - 0.0
15/10:20am 25.6 26.2 15.9 55 6.1 NE 7 13 4 7 - - 0.0
15/10:10am 25.2 25.7 16.6 59 5.4 NE 9 13 5 7 - - 0.0
15/10:00am 25.7 26.7 16.9 58 5.6 NE 7 13 4 7 - - 0.0
15/09:50am 25.9 26.5 16.8 57 5.8 NE 9 11 5 6 - - 0.0
15/04:50am 19.1 20.6 18.1 94 0.6 NE 7 11 4 6 - - 0.0
15/04:40am 19.2 20.3 18.0 93 0.8 NE 9 13 5 7 - - 0.0
15/04:30am 19.2 19.9 17.9 92 0.8 NE 11 15 6 8 - - 0.0
15/04:20am 19.1 20.2 18.0 93 0.7 NE 9 13 5 7 - - 0.0
15/04:10am 19.0 20.7 18.1 94 0.6 NE 6 13 3 7 - - 0.0
15/04:00am 19.0 20.5 18.0 94 0.6 NE 7 11 4 6 - - 0.0
15/03:50am 19.0 20.5 18.0 94 0.6 NE 7 9 4 5 - - 0.0
15/03:40am 19.0 20.6 17.9 93 0.7 NE 6 9 3 5 - - 0.0
15/03:30am 18.9 20.5 17.9 94 0.6 NE 6 9 3 5 - - 0.0
15/03:20am 19.0 20.4 17.9 93 0.7 NE 7 9 4 5 - - 0.0
15/03:10am 19.0 20.6 17.9 93 0.7 NE 6 9 3 5 - - 0.0
15/03:00am 19.0 20.5 18.0 94 0.6 NE 7 11 4 6 - - 0.0
15/02:50am 19.1 20.6 18.0 93 0.7 NE 7 13 4 7 - - 0.0
15/02:40am 19.1 20.6 18.0 93 0.7 NE 7 9 4 5 - - 0.0
15/02:30am 19.1 20.2 18.0 93 0.7 NE 9 13 5 7 - - 0.0
15/02:20am 19.1 20.2 18.1 94 0.6 NE 9 11 5 6 - - 0.0
15/02:10am 19.1 20.6 18.0 93 0.7 NE 7 9 4 5 - - 0.0
15/02:00am 19.1 20.6 18.0 93 0.7 NE 7 11 4 6 - - 0.0
15/01:50am 19.1 20.5 17.9 93 0.8 NE 7 13 4 7 - - 0.0
15/01:40am 19.1 20.5 17.9 93 0.8 NE 7 11 4 6 - - 0.0
15/01:30am 19.2 20.6 17.9 92 0.8 NE 7 9 4 5 - - 0.0
15/01:20am 19.2 20.3 18.0 93 0.8 NE 9 11 5 6 - - 0.0
15/01:10am 19.2 20.7 18.1 93 0.7 NE 7 11 4 6 - - 0.0
15/01:00am 19.2 19.9 18.0 93 0.8 NE 11 13 6 7 - - 0.0
15/12:50am 19.2 20.3 17.9 92 0.8 NE 9 13 5 7 - - 0.0
15/12:40am 19.1 20.5 17.8 92 0.8 NE 7 11 4 6 - - 0.0
15/12:30am 19.1 20.1 17.8 92 0.8 NE 9 15 5 8 - - 0.0
15/12:20am 19.1 20.5 17.8 92 0.8 NE 7 13 4 7 - - 0.0
15/12:10am 19.1 20.1 17.7 92 0.9 NE 9 13 5 7 - - 0.0
15/12:00am 19.1 20.0 17.5 90 1.0 NE 9 15 5 8 - - 0.0
 
Date/Time
EST
Temp
°C
App
Temp
°C
Dew
Point
°C
Rel
Hum
%
Delta-T
°C
Wind Press
QNH
hPa
Press
MSL
hPa
Rain since
9am
mm
Dir  Spd
km/h
Gust
km/h
Spd
kts
Gust
kts
14/11:50pm 19.1 20.4 17.5 90 1.0 NE 7 11 4 6 - - 0.0
14/11:40pm 19.1 20.0 17.5 90 1.0 NE 9 15 5 8 - - 0.0
14/11:30pm 19.1 20.4 17.5 90 1.0 NE 7 11 4 6 - - 0.0
14/11:20pm 19.2 20.1 17.5 90 1.1 NE 9 15 5 8 - - 0.0
14/11:10pm 19.1 20.4 17.6 91 0.9 NE 7 11 4 6 - - 0.0
14/11:00pm 19.1 20.4 17.6 91 0.9 NE 7 11 4 6 - - 0.0
14/10:50pm 19.2 20.6 17.7 91 0.9 NE 7 11 4 6 - - 0.0
14/10:40pm 19.2 20.6 17.7 91 0.9 NE 7 11 4 6 - - 0.0
14/10:30pm 19.3 19.9 17.7 90 1.0 NE 11 13 6 7 - - 0.0
14/10:20pm 19.3 20.9 17.8 91 0.9 NE 6 11 3 6 - - 0.0
14/10:10pm 19.4 20.8 17.9 91 0.9 NE 7 11 4 6 - - 0.0
14/10:00pm 19.4 20.8 17.9 91 0.9 NE 7 11 4 6 - - 0.0
14/09:50pm 19.5 21.0 18.1 92 0.9 NE 7 11 4 6 - - 0.0
14/09:40pm 19.5 21.0 18.1 92 0.9 NE 7 11 4 6 - - 0.0
14/09:30pm 19.6 21.1 18.1 91 1.0 ENE 7 11 4 6 - - 0.0
14/09:20pm 19.6 21.1 18.0 90 1.0 NE 7 9 4 5 - - 0.0
14/09:10pm 19.7 21.2 18.1 90 1.0 NE 7 11 4 6 - - 0.0
14/09:00pm 19.7 21.2 18.0 90 1.1 NE 7 15 4 8 - - 0.0
14/08:50pm 19.7 21.4 18.0 90 1.1 NE 6 9 3 5 - - 0.0
14/08:40pm 19.8 21.5 18.1 90 1.1 NE 6 9 3 5 - - 0.0
14/08:30pm 19.9 21.6 18.1 89 1.1 NE 6 7 3 4 - - 0.0
14/08:20pm 20.0 21.8 18.2 89 1.1 NE 6 9 3 5 - - 0.0
14/08:10pm 20.1 21.7 18.2 89 1.2 NE 7 11 4 6 - - 0.0
14/08:00pm 20.2 22.0 18.2 88 1.3 ENE 6 9 3 5 - - 0.0
14/07:50pm 20.3 21.8 18.0 87 1.5 NE 7 11 4 6 - - 0.0
14/07:40pm 20.4 22.1 18.1 87 1.5 NE 6 13 3 7 - - 0.0
14/07:30pm 20.5 22.0 18.1 86 1.5 ENE 7 11 4 6 - - 0.0
14/07:20pm 20.6 22.1 18.0 85 1.7 ENE 7 11 4 6 - - 0.0
14/07:10pm 20.8 22.2 17.7 82 2.0 ENE 7 9 4 5 - - 0.0
14/07:00pm 21.0 22.4 17.4 80 2.3 NE 6 11 3 6 - - 0.0
14/06:50pm 21.2 22.5 17.1 77 2.6 ENE 6 11 3 6 - - 0.0
14/06:40pm 21.5 22.7 16.8 74 2.9 NE 6 9 3 5 - - 0.0
14/06:30pm 21.8 22.7 16.6 72 3.2 ENE 7 9 4 5 - - 0.0
14/06:20pm 22.1 23.0 16.6 71 3.4 ENE 7 11 4 6 - - 0.0
14/06:10pm 22.4 23.5 16.5 69 3.7 ENE 6 11 3 6 - - 0.0
14/06:00pm 22.8 23.6 16.3 66 4.1 ENE 7 11 4 6 - - 0.0
14/05:50pm 23.2 24.0 16.3 65 4.3 ENE 7 9 4 5 - - 0.0
14/05:40pm 23.8 24.7 16.0 61 4.9 NE 6 13 3 7 - - 0.0
14/05:30pm 24.1 24.3 15.7 59 5.2 NE 9 13 5 7 - - 0.0
14/05:20pm 24.4 24.1 15.5 57 5.5 NE 11 15 6 8 - - 0.0
14/05:10pm 24.9 24.6 15.5 56 5.8 NE 11 15 6 8 - - 0.0
14/05:00pm 25.4 25.8 15.2 53 6.3 NNE 7 13 4 7 - - 0.0
14/04:50pm 25.4 24.9 14.9 52 6.5 NE 11 15 6 8 - - 0.0
14/04:40pm 25.6 24.6 14.7 51 6.7 NNE 13 17 7 9 - - 0.0
14/04:30pm 26.1 25.9 14.6 49 7.1 NE 9 11 5 6 - - 0.0
14/04:20pm 26.6 26.3 14.5 47 7.4 NE 9 13 5 7 - - 0.0
14/04:10pm 27.0 26.7 14.3 45 7.8 NE 9 13 5 7 - - 0.0
14/04:00pm 26.8 26.1 14.2 46 7.7 NE 11 19 6 10 - - 0.0
14/03:50pm 27.1 26.5 14.6 46 7.7 NE 11 17 6 9 - - 0.0
14/03:40pm 26.9 26.3 14.5 46 7.6 NNE 11 15 6 8 - - 0.0
14/03:30pm 27.0 26.4 14.5 46 7.7 NNE 11 19 6 10 - - 0.0
14/03:20pm 27.5 26.8 14.4 44 8.1 ENE 11 15 6 8 - - 0.0
14/03:10pm 27.7 27.2 14.9 45 8.0 NE 11 17 6 9 - - 0.0
14/03:00pm 27.8 27.6 14.6 44 8.2 NE 9 11 5 6 - - 0.0
14/02:50pm 28.0 27.5 13.8 41 8.7 NE 9 13 5 7 - - 0.0
14/02:40pm 27.9 27.3 14.6 44 8.2 NE 11 13 6 7 - - 0.0
14/02:30pm 27.7 27.5 14.6 44 8.1 NE 9 15 5 8 - - 0.0
14/02:20pm 27.9 27.3 14.7 44 8.2 NNE 11 17 6 9 - - 0.0
14/02:10pm 28.0 28.0 15.1 45 8.1 NE 9 15 5 8 - - 0.0
14/02:00pm 28.3 28.4 15.4 45 8.1 NNE 9 15 5 8 - - 0.0
14/01:50pm 27.8 27.9 15.5 47 7.7 NE 9 17 5 9 - - 0.0
14/01:40pm 27.7 27.7 15.3 46 7.8 ENE 9 11 5 6 - - 0.0
14/01:30pm 26.7 26.8 15.4 50 7.1 NE 9 13 5 7 - - 0.0
14/01:20pm 27.1 27.2 15.4 48 7.3 ENE 9 15 5 8 - - 0.0
14/01:10pm 27.0 27.1 15.6 49 7.1 ENE 9 13 5 7 - - 0.0
14/01:00pm 27.4 27.7 15.9 49 7.3 ENE 9 11 5 6 - - 0.0
14/12:50pm 27.2 27.1 15.9 50 7.1 ENE 11 17 6 9 - - 0.0
14/12:40pm 26.7 27.2 16.6 54 6.4 NE 9 11 5 6 - - 0.0
14/12:30pm 27.1 27.6 16.6 52 6.7 E 9 17 5 9 - - 0.0
14/12:20pm 26.8 26.6 15.8 51 6.9 E 11 17 6 9 - - 0.0
14/12:10pm 26.6 27.7 17.1 56 6.1 NE 7 15 4 8 - - 0.0
14/12:00pm 27.3 27.4 16.5 51 6.9 NE 11 13 6 7 - - 0.0
14/11:50am 26.8 26.9 16.6 53 6.5 NE 11 17 6 9 - - 0.0
14/11:40am 26.9 27.4 16.6 53 6.6 NE 9 15 5 8 - - 0.0
14/11:30am 25.9 26.4 16.5 56 5.9 NE 9 11 5 6 - - 0.0
14/11:20am 25.2 25.9 17.0 60 5.2 ENE 9 13 5 7 - - 0.0
14/11:10am 25.6 26.1 17.5 61 5.2 NE 11 15 6 8 - - 0.0
14/11:00am 24.7 25.7 17.7 65 4.5 NNE 9 13 5 7 - - 0.0
14/10:50am 24.1 25.3 18.2 69 3.8 ENE 9 11 5 6 - - 0.0
14/10:40am 24.2 25.3 18.1 68 3.9 NNE 9 17 5 9 - - 0.0
14/10:30am 24.8 25.9 18.0 66 4.4 NE 9 13 5 7 - - 0.0
14/10:20am 25.0 25.9 18.3 66 4.3 NE 11 13 6 7 - - 0.0
14/10:00am 24.2 25.1 18.3 69 3.8 NNE 11 15 6 8 - - 0.0
14/09:50am 24.7 25.3 18.6 69 4.0 NNE 13 17 7 9 - - 0.0
14/09:40am 25.4 26.3 18.5 65 4.5 NE 11 17 6 9 - - 0.0
14/09:30am 24.8 25.8 17.8 65 4.5 NE 9 15 5 8 - - 0.0
14/09:20am 24.0 24.3 18.0 69 3.9 NE 13 15 7 8 - - 0.0
14/09:10am 24.0 24.7 18.0 69 3.9 NE 11 19 6 10 - - 0.0
14/09:00am 23.7 24.5 18.2 71 3.5 NE 11 17 6 9 - - 0.0
14/08:50am 23.6 24.2 17.8 70 3.7 NE 11 17 6 9 - - 0.0
14/08:40am 23.4 24.3 17.6 70 3.7 NE 9 15 5 8 - - 0.0
14/08:30am 22.7 22.9 17.7 73 3.2 NE 13 15 7 8 - - 0.0
14/08:20am 22.8 23.5 17.9 74 3.1 ENE 11 15 6 8 - - 0.0
14/08:10am 22.7 23.8 18.1 75 3.0 NE 9 13 5 7 - - 0.0
14/08:00am 22.9 24.5 18.3 75 3.0 NE 7 11 4 6 - - 0.0
14/07:50am 22.1 23.3 18.3 79 2.4 NE 9 13 5 7 - - 0.0
14/07:40am 21.9 23.1 18.3 80 2.3 NE 9 11 5 6 - - 0.0
14/07:30am 21.6 22.8 18.2 81 2.2 NE 9 15 5 8 - - 0.0
14/07:20am 21.0 22.1 18.1 83 1.9 NE 9 13 5 7 - - 0.0
14/07:10am 20.6 21.7 18.1 85 1.6 NE 9 13 5 7 - - 0.0
14/07:00am 20.4 21.5 18.0 86 1.5 NE 9 13 5 7 - - 0.0
14/06:50am 20.2 21.3 18.1 88 1.3 NE 9 13 5 7 - - 0.0
14/06:40am 19.8 21.2 17.9 89 1.2 NE 7 11 4 6 - - 0.0
14/06:30am 19.6 21.1 17.7 89 1.2 NE 6 9 3 5 - - 0.0
14/06:20am 19.4 20.8 17.7 90 1.1 NE 7 11 4 6 - - 0.0
14/06:10am 19.3 20.7 17.7 90 1.0 NE 7 11 4 6 - - 0.0
14/06:00am 19.2 21.2 17.9 92 0.8 NE 4 7 2 4 - - 0.0
14/05:50am 19.0 20.5 17.7 92 0.8 NE 6 9 3 5 - - 0.0
14/05:40am 19.0 20.6 17.8 93 0.8 NE 6 7 3 4 - - 0.0
14/05:30am 19.0 20.5 17.7 92 0.8 NE 6 11 3 6 - - 0.0
14/05:20am 18.9 20.4 17.7 93 0.8 NE 6 7 3 4 - - 0.0
14/05:10am 19.0 20.6 17.8 93 0.8 NE 6 9 3 5 - - 0.0
14/05:00am 19.1 20.8 18.0 93 0.7 NE 6 9 3 5 - - 0.0
14/04:50am 19.0 20.6 17.9 93 0.7 NE 6 9 3 5 - - 0.0
14/04:40am 19.0 20.6 17.9 93 0.7 ENE 6 7 3 4 - - 0.0
14/04:30am 18.9 20.4 18.0 94 0.6 NE 7 11 4 6 - - 0.0
14/04:20am 19.0 20.6 17.9 93 0.7 NE 6 9 3 5 - - 0.0
14/04:10am 19.0 21.1 18.0 94 0.6 NE 4 6 2 3 - - 0.0
14/04:00am 18.9 20.3 17.8 93 0.7 ENE 7 9 4 5 - - 0.0
14/03:50am 18.9 20.5 17.8 93 0.7 NE 6 9 3 5 - - 0.0
14/03:40am 18.8 20.3 17.6 93 0.8 NE 6 9 3 5 - - 0.0
14/03:30am 18.9 20.3 17.7 93 0.8 NE 7 11 4 6 - - 0.0
14/03:20am 18.9 20.3 17.7 93 0.8 NE 7 11 4 6 - - 0.0
14/03:10am 18.8 20.2 17.9 94 0.6 NE 7 11 4 6 - - 0.0
14/03:00am 18.8 20.2 17.8 94 0.6 NE 7 11 4 6 - - 0.0
14/02:50am 19.0 20.4 17.9 93 0.7 NE 7 11 4 6 - - 0.0
14/02:40am 19.0 19.7 18.0 94 0.6 NE 11 13 6 7 - - 0.0
14/02:30am 18.9 20.0 17.9 94 0.6 NNE 9 11 5 6 - - 0.0
14/02:20am 19.0 19.6 17.8 93 0.8 NNE 11 15 6 8 - - 0.0
14/02:10am 19.0 20.0 17.8 93 0.8 NE 9 13 5 7 - - 0.0
14/02:00am 19.1 20.1 17.8 92 0.8 NE 9 13 5 7 - - 0.0
14/01:50am 19.1 19.8 17.9 93 0.8 NE 11 15 6 8 - - 0.0
14/01:40am 19.0 20.0 17.8 93 0.8 NE 9 13 5 7 - - 0.0
14/01:30am 19.1 19.7 17.8 92 0.8 NE 11 15 6 8 - - 0.0
14/01:20am 19.1 20.1 17.7 92 0.9 NNE 9 15 5 8 - - 0.0
14/01:10am 19.1 20.1 17.7 92 0.9 NNE 9 13 5 7 - - 0.0
14/01:00am 19.1 20.1 17.7 92 0.9 NE 9 11 5 6 - - 0.0
14/12:50am 19.1 20.1 17.8 92 0.8 NE 9 13 5 7 - - 0.0
14/12:40am 19.2 19.8 17.6 90 1.0 NE 11 15 6 8 - - 0.0
14/12:30am 19.2 19.8 17.6 90 1.0 NE 11 13 6 7 - - 0.0
14/12:20am 19.1 19.7 17.8 92 0.8 NE 11 15 6 8 - - 0.0
14/12:10am 19.1 20.1 17.8 92 0.8 NE 9 11 5 6 - - 0.0
14/12:00am 19.0 20.0 17.7 92 0.8 NE 9 15 5 8 - - 0.0
 
Date/Time
EST
Temp
°C
App
Temp
°C
Dew
Point
°C
Rel
Hum
%
Delta-T
°C
Wind Press
QNH
hPa
Press
MSL
hPa
Rain since
9am
mm
Dir  Spd
km/h
Gust
km/h
Spd
kts
Gust
kts
13/11:50pm 19.0 20.0 17.8 93 0.8 NE 9 13 5 7 - - 0.0
13/11:40pm 19.0 20.4 17.7 92 0.8 NE 7 11 4 6 - - 0.0
13/11:30pm 19.0 19.9 17.6 92 0.9 NE 9 13 5 7 - - 0.0
13/11:20pm 19.0 19.6 17.6 92 0.9 NE 11 15 6 8 - - 0.0
13/11:10pm 19.0 19.9 17.5 91 0.9 NE 9 11 5 6 - - 0.0
13/11:00pm 18.9 19.8 17.5 92 0.9 NE 9 11 5 6 - - 0.0
13/10:50pm 18.8 19.6 17.4 91 0.9 NE 9 9 5 5 - - 0.0
13/10:40pm 18.8 19.6 17.3 91 0.9 NE 9 11 5 6 - - 0.0
13/10:30pm 18.9 19.7 17.3 90 1.0 NE 9 13 5 7 - - 0.0
13/10:20pm 18.9 19.7 17.3 90 1.0 NE 9 13 5 7 - - 0.0
13/10:10pm 18.8 19.9 17.2 90 1.0 NE 7 11 4 6 - - 0.0
13/10:00pm 18.8 20.1 17.2 90 1.0 NE 6 9 3 5 - - 0.0

Other Formats:

Comma delimited format used in spreadsheet applications
http://www.bom.gov.au/fwo/IDQ60801/IDQ60801.99125.axf

JavaScript Object Notation format (JSON) in row-major order
http://www.bom.gov.au/fwo/IDQ60801/IDQ60801.99125.json